sensor_id;sensor_type;location;lat;lon;timestamp;temperature;humidity
563;DHT22;266;49.514;8.294;2024-03-23T00:56:00;9.60;99.90
563;DHT22;266;49.514;8.294;2024-03-23T00:58:29;9.60;99.90
563;DHT22;266;49.514;8.294;2024-03-23T01:00:55;9.60;99.90
563;DHT22;266;49.514;8.294;2024-03-23T01:03:22;9.60;99.90
563;DHT22;266;49.514;8.294;2024-03-23T01:05:49;9.50;99.90
563;DHT22;266;49.514;8.294;2024-03-23T01:08:16;9.50;99.90
563;DHT22;266;49.514;8.294;2024-03-23T01:10:42;9.50;99.90
563;DHT22;266;49.514;8.294;2024-03-23T01:13:11;9.40;99.90
563;DHT22;266;49.514;8.294;2024-03-23T01:15:37;9.40;99.90
563;DHT22;266;49.514;8.294;2024-03-23T01:18:04;9.20;99.90
563;DHT22;266;49.514;8.294;2024-03-23T01:20:31;9.20;99.90
563;DHT22;266;49.514;8.294;2024-03-23T01:22:59;9.20;99.90
563;DHT22;266;49.514;8.294;2024-03-23T01:25:25;9.20;99.90
563;DHT22;266;49.514;8.294;2024-03-23T01:27:52;9.20;99.90
563;DHT22;266;49.514;8.294;2024-03-23T01:30:19;9.20;99.90
563;DHT22;266;49.514;8.294;2024-03-23T01:32:46;9.20;99.90
563;DHT22;266;49.514;8.294;2024-03-23T01:35:13;9.20;99.90
563;DHT22;266;49.514;8.294;2024-03-23T01:37:40;9.30;99.90
563;DHT22;266;49.514;8.294;2024-03-23T01:40:08;9.30;99.90
563;DHT22;266;49.514;8.294;2024-03-23T01:42:39;9.30;99.90
563;DHT22;266;49.514;8.294;2024-03-23T01:45:08;9.40;99.90
563;DHT22;266;49.514;8.294;2024-03-23T01:47:36;9.40;99.90
563;DHT22;266;49.514;8.294;2024-03-23T01:50:07;9.40;99.90
563;DHT22;266;49.514;8.294;2024-03-23T01:52:36;9.40;99.90
563;DHT22;266;49.514;8.294;2024-03-23T01:55:03;9.40;99.90
563;DHT22;266;49.514;8.294;2024-03-23T01:57:30;9.50;99.90
563;DHT22;266;49.514;8.294;2024-03-23T01:59:56;9.50;99.90
563;DHT22;266;49.514;8.294;2024-03-23T02:02:23;9.70;99.90
563;DHT22;266;49.514;8.294;2024-03-23T02:04:51;9.90;99.90
563;DHT22;266;49.514;8.294;2024-03-23T02:07:18;10.10;99.90
563;DHT22;266;49.514;8.294;2024-03-23T02:09:44;10.30;99.90
563;DHT22;266;49.514;8.294;2024-03-23T02:12:11;10.40;99.90
563;DHT22;266;49.514;8.294;2024-03-23T02:14:37;10.60;99.90
563;DHT22;266;49.514;8.294;2024-03-23T02:17:05;10.80;99.90
563;DHT22;266;49.514;8.294;2024-03-23T02:19:31;11.10;99.90
563;DHT22;266;49.514;8.294;2024-03-23T02:21:59;11.40;99.90
563;DHT22;266;49.514;8.294;2024-03-23T02:24:29;11.60;99.90
563;DHT22;266;49.514;8.294;2024-03-23T02:26:56;11.70;99.90
563;DHT22;266;49.514;8.294;2024-03-23T02:29:23;11.90;99.90
563;DHT22;266;49.514;8.294;2024-03-23T02:31:50;12.00;99.90
563;DHT22;266;49.514;8.294;2024-03-23T02:34:16;12.10;99.90
563;DHT22;266;49.514;8.294;2024-03-23T02:36:43;12.20;99.90
563;DHT22;266;49.514;8.294;2024-03-23T02:39:09;12.20;99.90
563;DHT22;266;49.514;8.294;2024-03-23T02:41:38;12.20;99.90
563;DHT22;266;49.514;8.294;2024-03-23T02:44:05;12.40;99.90
563;DHT22;266;49.514;8.294;2024-03-23T02:46:32;12.50;99.90
563;DHT22;266;49.514;8.294;2024-03-23T02:48:58;12.50;99.90
563;DHT22;266;49.514;8.294;2024-03-23T02:51:26;12.50;99.90
563;DHT22;266;49.514;8.294;2024-03-23T02:53:52;12.40;99.90
563;DHT22;266;49.514;8.294;2024-03-23T02:56:19;12.40;99.90
563;DHT22;266;49.514;8.294;2024-03-23T02:58:47;12.50;99.90
563;DHT22;266;49.514;8.294;2024-03-23T03:01:14;12.60;99.90
563;DHT22;266;49.514;8.294;2024-03-23T03:03:40;12.70;99.90
563;DHT22;266;49.514;8.294;2024-03-23T03:06:08;12.80;99.90
563;DHT22;266;49.514;8.294;2024-03-23T03:08:34;12.90;99.90
563;DHT22;266;49.514;8.294;2024-03-23T03:11:01;12.90;99.90
563;DHT22;266;49.514;8.294;2024-03-23T03:13:27;12.90;99.90
563;DHT22;266;49.514;8.294;2024-03-23T03:15:56;12.90;99.90
563;DHT22;266;49.514;8.294;2024-03-23T03:18:22;12.80;99.90
563;DHT22;266;49.514;8.294;2024-03-23T03:20:50;12.80;99.90
563;DHT22;266;49.514;8.294;2024-03-23T03:23:19;12.70;99.90
563;DHT22;266;49.514;8.294;2024-03-23T03:25:48;12.70;99.90
563;DHT22;266;49.514;8.294;2024-03-23T03:28:14;12.70;99.90
563;DHT22;266;49.514;8.294;2024-03-23T03:30:41;12.70;99.90
563;DHT22;266;49.514;8.294;2024-03-23T03:33:08;12.70;99.90
563;DHT22;266;49.514;8.294;2024-03-23T03:35:37;12.60;99.90
563;DHT22;266;49.514;8.294;2024-03-23T03:38:04;12.60;99.90
563;DHT22;266;49.514;8.294;2024-03-23T03:40:31;12.70;99.90
563;DHT22;266;49.514;8.294;2024-03-23T03:42:57;12.70;99.90
563;DHT22;266;49.514;8.294;2024-03-23T03:45:24;12.70;99.90
563;DHT22;266;49.514;8.294;2024-03-23T03:47:51;12.60;99.90
563;DHT22;266;49.514;8.294;2024-03-23T03:50:19;12.70;99.90
563;DHT22;266;49.514;8.294;2024-03-23T03:52:46;12.70;99.90
563;DHT22;266;49.514;8.294;2024-03-23T03:55:14;12.70;99.90
563;DHT22;266;49.514;8.294;2024-03-23T03:57:40;12.70;99.90
563;DHT22;266;49.514;8.294;2024-03-23T04:00:08;12.70;99.90
563;DHT22;266;49.514;8.294;2024-03-23T04:02:37;12.70;99.90
563;DHT22;266;49.514;8.294;2024-03-23T04:05:04;12.60;99.90
563;DHT22;266;49.514;8.294;2024-03-23T04:07:32;12.60;99.90
563;DHT22;266;49.514;8.294;2024-03-23T04:09:59;12.50;99.90
563;DHT22;266;49.514;8.294;2024-03-23T04:12:25;12.50;99.90
563;DHT22;266;49.514;8.294;2024-03-23T04:14:52;12.50;99.90
563;DHT22;266;49.514;8.294;2024-03-23T04:17:19;12.40;99.90
563;DHT22;266;49.514;8.294;2024-03-23T04:19:46;12.40;99.90
563;DHT22;266;49.514;8.294;2024-03-23T04:22:13;12.30;99.90
563;DHT22;266;49.514;8.294;2024-03-23T04:24:41;12.30;99.90
563;DHT22;266;49.514;8.294;2024-03-23T04:27:08;12.40;99.90
563;DHT22;266;49.514;8.294;2024-03-23T04:29:35;12.40;99.90
563;DHT22;266;49.514;8.294;2024-03-23T04:32:01;12.30;99.90
563;DHT22;266;49.514;8.294;2024-03-23T04:34:28;12.30;99.90
563;DHT22;266;49.514;8.294;2024-03-23T04:36:55;12.30;99.90
563;DHT22;266;49.514;8.294;2024-03-23T04:39:22;12.30;99.90
563;DHT22;266;49.514;8.294;2024-03-23T04:41:50;12.20;99.90
563;DHT22;266;49.514;8.294;2024-03-23T04:44:17;12.10;99.90
563;DHT22;266;49.514;8.294;2024-03-23T04:46:44;12.10;99.90
563;DHT22;266;49.514;8.294;2024-03-23T04:49:12;12.10;99.90
563;DHT22;266;49.514;8.294;2024-03-23T04:51:38;12.10;99.90
563;DHT22;266;49.514;8.294;2024-03-23T04:54:07;12.00;99.90
563;DHT22;266;49.514;8.294;2024-03-23T04:56:34;11.90;99.90
563;DHT22;266;49.514;8.294;2024-03-23T04:59:04;11.80;99.90
563;DHT22;266;49.514;8.294;2024-03-23T05:01:31;11.80;99.90
563;DHT22;266;49.514;8.294;2024-03-23T05:03:58;11.70;99.90
563;DHT22;266;49.514;8.294;2024-03-23T05:06:24;11.70;99.90
563;DHT22;266;49.514;8.294;2024-03-23T05:08:51;11.50;99.90
563;DHT22;266;49.514;8.294;2024-03-23T05:11:18;10.80;99.90
563;DHT22;266;49.514;8.294;2024-03-23T05:13:46;10.40;99.90
563;DHT22;266;49.514;8.294;2024-03-23T05:16:14;10.00;99.90
563;DHT22;266;49.514;8.294;2024-03-23T05:18:41;9.80;99.90
563;DHT22;266;49.514;8.294;2024-03-23T05:21:08;9.60;99.90
563;DHT22;266;49.514;8.294;2024-03-23T05:23:34;9.40;99.90
563;DHT22;266;49.514;8.294;2024-03-23T05:26:03;9.30;99.90
563;DHT22;266;49.514;8.294;2024-03-23T05:28:30;9.30;99.90
563;DHT22;266;49.514;8.294;2024-03-23T05:30:57;9.20;99.90
563;DHT22;266;49.514;8.294;2024-03-23T05:33:25;9.10;99.90
563;DHT22;266;49.514;8.294;2024-03-23T05:35:57;9.10;99.90
563;DHT22;266;49.514;8.294;2024-03-23T05:38:23;9.10;99.90
563;DHT22;266;49.514;8.294;2024-03-23T05:40:55;9.10;99.90
563;DHT22;266;49.514;8.294;2024-03-23T05:43:21;9.10;99.90
563;DHT22;266;49.514;8.294;2024-03-23T05:45:53;9.00;99.90
563;DHT22;266;49.514;8.294;2024-03-23T05:48:20;9.00;99.90
563;DHT22;266;49.514;8.294;2024-03-23T05:50:49;8.90;99.90
563;DHT22;266;49.514;8.294;2024-03-23T05:53:15;8.90;99.90
563;DHT22;266;49.514;8.294;2024-03-23T05:55:42;8.90;99.90
563;DHT22;266;49.514;8.294;2024-03-23T05:58:09;8.90;99.90
563;DHT22;266;49.514;8.294;2024-03-23T06:00:37;8.90;99.90
563;DHT22;266;49.514;8.294;2024-03-23T06:03:04;8.90;99.90
563;DHT22;266;49.514;8.294;2024-03-23T06:05:31;8.90;99.90
563;DHT22;266;49.514;8.294;2024-03-23T06:07:59;8.90;99.90
563;DHT22;266;49.514;8.294;2024-03-23T06:10:26;8.90;99.90
563;DHT22;266;49.514;8.294;2024-03-23T06:12:52;8.80;99.90
563;DHT22;266;49.514;8.294;2024-03-23T06:15:19;8.70;99.90
563;DHT22;266;49.514;8.294;2024-03-23T06:17:45;8.70;99.90
563;DHT22;266;49.514;8.294;2024-03-23T06:20:13;8.60;99.90
563;DHT22;266;49.514;8.294;2024-03-23T06:22:39;8.50;99.90
563;DHT22;266;49.514;8.294;2024-03-23T06:25:08;8.50;99.90
563;DHT22;266;49.514;8.294;2024-03-23T06:27:34;8.40;99.90
563;DHT22;266;49.514;8.294;2024-03-23T06:30:02;8.40;99.90
563;DHT22;266;49.514;8.294;2024-03-23T06:32:28;8.30;99.90
563;DHT22;266;49.514;8.294;2024-03-23T06:34:55;8.20;99.90
563;DHT22;266;49.514;8.294;2024-03-23T06:37:22;8.10;99.90
563;DHT22;266;49.514;8.294;2024-03-23T06:39:49;8.10;99.90
563;DHT22;266;49.514;8.294;2024-03-23T06:42:16;8.10;99.90
563;DHT22;266;49.514;8.294;2024-03-23T06:44:43;8.10;99.90
563;DHT22;266;49.514;8.294;2024-03-23T06:47:10;8.10;99.90
563;DHT22;266;49.514;8.294;2024-03-23T06:49:37;8.10;99.90
563;DHT22;266;49.514;8.294;2024-03-23T06:52:04;8.20;99.90
563;DHT22;266;49.514;8.294;2024-03-23T06:54:31;8.20;99.90
563;DHT22;266;49.514;8.294;2024-03-23T06:56:57;8.20;99.90
563;DHT22;266;49.514;8.294;2024-03-23T06:59:25;8.20;99.90
563;DHT22;266;49.514;8.294;2024-03-23T07:01:51;8.10;99.90
563;DHT22;266;49.514;8.294;2024-03-23T07:04:18;8.10;99.90
563;DHT22;266;49.514;8.294;2024-03-23T07:06:45;8.10;99.90
563;DHT22;266;49.514;8.294;2024-03-23T07:09:12;8.10;99.90
563;DHT22;266;49.514;8.294;2024-03-23T07:11:38;8.10;99.90
563;DHT22;266;49.514;8.294;2024-03-23T07:14:05;8.30;99.90
563;DHT22;266;49.514;8.294;2024-03-23T07:16:34;8.30;99.90
563;DHT22;266;49.514;8.294;2024-03-23T07:19:01;8.50;99.90
563;DHT22;266;49.514;8.294;2024-03-23T07:21:27;8.70;99.90
563;DHT22;266;49.514;8.294;2024-03-23T07:23:54;8.80;99.90
563;DHT22;266;49.514;8.294;2024-03-23T07:26:20;8.90;99.90
563;DHT22;266;49.514;8.294;2024-03-23T07:28:47;8.80;99.90
563;DHT22;266;49.514;8.294;2024-03-23T07:31:15;8.80;99.90
563;DHT22;266;49.514;8.294;2024-03-23T07:33:45;8.90;99.90
563;DHT22;266;49.514;8.294;2024-03-23T07:36:12;8.90;99.90
563;DHT22;266;49.514;8.294;2024-03-23T07:38:40;8.90;99.90
563;DHT22;266;49.514;8.294;2024-03-23T07:41:09;8.80;99.90
563;DHT22;266;49.514;8.294;2024-03-23T07:43:36;8.70;99.90
563;DHT22;266;49.514;8.294;2024-03-23T07:46:04;8.80;99.90
563;DHT22;266;49.514;8.294;2024-03-23T07:48:31;9.00;99.90
563;DHT22;266;49.514;8.294;2024-03-23T07:51:04;9.20;99.90
563;DHT22;266;49.514;8.294;2024-03-23T07:53:30;9.70;99.90
563;DHT22;266;49.514;8.294;2024-03-23T07:55:59;9.90;99.90
563;DHT22;266;49.514;8.294;2024-03-23T07:58:26;10.10;99.90
563;DHT22;266;49.514;8.294;2024-03-23T08:00:54;10.20;99.90
563;DHT22;266;49.514;8.294;2024-03-23T08:03:20;10.30;99.90
563;DHT22;266;49.514;8.294;2024-03-23T08:05:47;10.50;99.90
563;DHT22;266;49.514;8.294;2024-03-23T08:08:16;10.60;99.90
563;DHT22;266;49.514;8.294;2024-03-23T08:10:49;10.40;99.90
563;DHT22;266;49.514;8.294;2024-03-23T08:13:16;10.20;99.90
563;DHT22;266;49.514;8.294;2024-03-23T08:15:43;9.90;99.90
563;DHT22;266;49.514;8.294;2024-03-23T08:18:11;9.70;99.90
563;DHT22;266;49.514;8.294;2024-03-23T08:20:38;9.60;99.90
563;DHT22;266;49.514;8.294;2024-03-23T08:23:06;9.40;99.90
563;DHT22;266;49.514;8.294;2024-03-23T08:25:34;9.20;99.90
563;DHT22;266;49.514;8.294;2024-03-23T08:28:01;9.30;99.90
563;DHT22;266;49.514;8.294;2024-03-23T08:30:28;9.70;99.90
563;DHT22;266;49.514;8.294;2024-03-23T08:32:55;10.00;99.90
563;DHT22;266;49.514;8.294;2024-03-23T08:35:21;10.10;99.90
563;DHT22;266;49.514;8.294;2024-03-23T08:37:48;10.30;99.90
563;DHT22;266;49.514;8.294;2024-03-23T08:40:15;10.50;99.90
563;DHT22;266;49.514;8.294;2024-03-23T08:42:44;10.40;99.90
563;DHT22;266;49.514;8.294;2024-03-23T08:45:10;10.70;99.90
563;DHT22;266;49.514;8.294;2024-03-23T08:47:37;10.80;99.90
563;DHT22;266;49.514;8.294;2024-03-23T08:50:06;11.00;99.90
563;DHT22;266;49.514;8.294;2024-03-23T08:52:33;11.60;99.90
563;DHT22;266;49.514;8.294;2024-03-23T08:54:59;12.10;99.90
563;DHT22;266;49.514;8.294;2024-03-23T08:57:27;12.10;99.90
563;DHT22;266;49.514;8.294;2024-03-23T08:59:54;11.90;99.90
563;DHT22;266;49.514;8.294;2024-03-23T09:02:21;12.00;99.90
563;DHT22;266;49.514;8.294;2024-03-23T09:04:47;11.90;99.90
563;DHT22;266;49.514;8.294;2024-03-23T09:07:14;11.60;99.90
563;DHT22;266;49.514;8.294;2024-03-23T09:09:41;11.50;99.90
563;DHT22;266;49.514;8.294;2024-03-23T09:12:08;11.20;99.90
563;DHT22;266;49.514;8.294;2024-03-23T09:14:34;11.00;99.90
563;DHT22;266;49.514;8.294;2024-03-23T09:17:06;11.00;99.90
563;DHT22;266;49.514;8.294;2024-03-23T09:19:32;11.30;99.90
563;DHT22;266;49.514;8.294;2024-03-23T09:21:59;11.70;99.90
563;DHT22;266;49.514;8.294;2024-03-23T09:24:25;12.20;99.90
563;DHT22;266;49.514;8.294;2024-03-23T09:26:53;12.60;99.90
563;DHT22;266;49.514;8.294;2024-03-23T09:29:19;12.90;99.90
563;DHT22;266;49.514;8.294;2024-03-23T09:31:46;12.90;99.90
563;DHT22;266;49.514;8.294;2024-03-23T09:34:13;12.40;99.90
563;DHT22;266;49.514;8.294;2024-03-23T09:36:41;12.20;99.90
563;DHT22;266;49.514;8.294;2024-03-23T09:39:07;12.00;99.90
563;DHT22;266;49.514;8.294;2024-03-23T09:41:35;11.80;99.90
563;DHT22;266;49.514;8.294;2024-03-23T09:44:01;11.70;99.90
563;DHT22;266;49.514;8.294;2024-03-23T09:46:28;11.80;99.90
563;DHT22;266;49.514;8.294;2024-03-23T09:49:00;11.80;99.90
563;DHT22;266;49.514;8.294;2024-03-23T09:51:31;11.80;99.90
563;DHT22;266;49.514;8.294;2024-03-23T09:53:57;11.90;99.90
563;DHT22;266;49.514;8.294;2024-03-23T09:56:24;12.20;99.90
563;DHT22;266;49.514;8.294;2024-03-23T09:58:51;12.50;99.90
563;DHT22;266;49.514;8.294;2024-03-23T10:01:18;12.60;99.90
563;DHT22;266;49.514;8.294;2024-03-23T10:03:45;12.80;99.90
563;DHT22;266;49.514;8.294;2024-03-23T10:06:12;12.80;99.90
563;DHT22;266;49.514;8.294;2024-03-23T10:08:40;12.80;99.90
563;DHT22;266;49.514;8.294;2024-03-23T10:11:14;12.70;99.90
563;DHT22;266;49.514;8.294;2024-03-23T10:13:42;12.60;99.90
563;DHT22;266;49.514;8.294;2024-03-23T10:16:10;12.40;99.90
563;DHT22;266;49.514;8.294;2024-03-23T10:18:40;12.40;99.90
563;DHT22;266;49.514;8.294;2024-03-23T10:21:08;12.30;99.90
563;DHT22;266;49.514;8.294;2024-03-23T10:23:35;12.30;99.90
563;DHT22;266;49.514;8.294;2024-03-23T10:26:17;12.30;99.90
563;DHT22;266;49.514;8.294;2024-03-23T10:28:54;12.00;99.90
563;DHT22;266;49.514;8.294;2024-03-23T10:31:23;12.00;99.90
563;DHT22;266;49.514;8.294;2024-03-23T10:33:49;11.90;99.90
563;DHT22;266;49.514;8.294;2024-03-23T10:36:20;11.80;99.90
563;DHT22;266;49.514;8.294;2024-03-23T10:38:46;12.30;99.90
563;DHT22;266;49.514;8.294;2024-03-23T10:41:16;12.90;99.90
563;DHT22;266;49.514;8.294;2024-03-23T10:43:43;13.10;99.90
563;DHT22;266;49.514;8.294;2024-03-23T10:46:12;12.70;99.90
563;DHT22;266;49.514;8.294;2024-03-23T10:48:38;12.40;99.90
563;DHT22;266;49.514;8.294;2024-03-23T10:51:07;12.30;99.90
563;DHT22;266;49.514;8.294;2024-03-23T10:53:34;12.30;99.90
563;DHT22;266;49.514;8.294;2024-03-23T10:56:04;12.30;99.90
563;DHT22;266;49.514;8.294;2024-03-23T10:58:38;12.40;99.90
563;DHT22;266;49.514;8.294;2024-03-23T11:01:05;12.30;99.90
563;DHT22;266;49.514;8.294;2024-03-23T11:03:33;12.30;99.90
563;DHT22;266;49.514;8.294;2024-03-23T11:06:00;12.30;99.90
563;DHT22;266;49.514;8.294;2024-03-23T11:08:31;12.20;99.90
563;DHT22;266;49.514;8.294;2024-03-23T11:11:16;12.10;99.90
563;DHT22;266;49.514;8.294;2024-03-23T11:13:44;12.20;99.90
563;DHT22;266;49.514;8.294;2024-03-23T11:16:14;12.20;99.90
563;DHT22;266;49.514;8.294;2024-03-23T11:18:40;12.40;99.90
563;DHT22;266;49.514;8.294;2024-03-23T11:21:08;12.40;99.90
563;DHT22;266;49.514;8.294;2024-03-23T11:23:34;12.20;99.90
563;DHT22;266;49.514;8.294;2024-03-23T11:26:01;12.00;99.90
563;DHT22;266;49.514;8.294;2024-03-23T11:28:27;11.70;99.90
563;DHT22;266;49.514;8.294;2024-03-23T11:30:55;11.30;99.90
563;DHT22;266;49.514;8.294;2024-03-23T11:33:24;10.70;99.90
563;DHT22;266;49.514;8.294;2024-03-23T11:35:50;10.00;99.90
563;DHT22;266;49.514;8.294;2024-03-23T11:38:18;9.80;99.90
563;DHT22;266;49.514;8.294;2024-03-23T11:40:45;9.80;99.90
563;DHT22;266;49.514;8.294;2024-03-23T11:43:14;10.10;99.90
563;DHT22;266;49.514;8.294;2024-03-23T11:45:42;10.30;99.90
563;DHT22;266;49.514;8.294;2024-03-23T11:48:12;10.80;99.90
563;DHT22;266;49.514;8.294;2024-03-23T11:50:41;11.10;99.90
563;DHT22;266;49.514;8.294;2024-03-23T11:53:15;11.40;99.90
563;DHT22;266;49.514;8.294;2024-03-23T11:55:43;11.60;99.90
563;DHT22;266;49.514;8.294;2024-03-23T11:58:10;11.80;99.90
563;DHT22;266;49.514;8.294;2024-03-23T12:00:37;11.50;99.90
563;DHT22;266;49.514;8.294;2024-03-23T12:03:05;11.50;99.90
563;DHT22;266;49.514;8.294;2024-03-23T12:05:33;11.50;99.90
563;DHT22;266;49.514;8.294;2024-03-23T12:08:20;11.40;99.90
563;DHT22;266;49.514;8.294;2024-03-23T12:10:50;11.30;99.90
563;DHT22;266;49.514;8.294;2024-03-23T12:13:18;11.30;99.90
563;DHT22;266;49.514;8.294;2024-03-23T12:15:46;11.00;99.90
563;DHT22;266;49.514;8.294;2024-03-23T12:18:12;10.90;99.90
563;DHT22;266;49.514;8.294;2024-03-23T12:20:41;10.60;99.90
563;DHT22;266;49.514;8.294;2024-03-23T12:23:09;10.50;99.90
563;DHT22;266;49.514;8.294;2024-03-23T12:25:38;10.40;99.90
563;DHT22;266;49.514;8.294;2024-03-23T12:28:04;10.50;99.90
563;DHT22;266;49.514;8.294;2024-03-23T12:30:38;11.00;99.90
563;DHT22;266;49.514;8.294;2024-03-23T12:33:05;11.70;99.90
563;DHT22;266;49.514;8.294;2024-03-23T12:35:32;12.00;99.90
563;DHT22;266;49.514;8.294;2024-03-23T12:38:00;11.80;99.90
563;DHT22;266;49.514;8.294;2024-03-23T12:40:28;11.80;99.90
563;DHT22;266;49.514;8.294;2024-03-23T12:42:54;11.80;99.90
563;DHT22;266;49.514;8.294;2024-03-23T12:45:22;11.60;99.90
563;DHT22;266;49.514;8.294;2024-03-23T12:47:49;10.70;99.90
563;DHT22;266;49.514;8.294;2024-03-23T12:50:18;9.70;99.90
563;DHT22;266;49.514;8.294;2024-03-23T12:52:44;9.00;99.90
563;DHT22;266;49.514;8.294;2024-03-23T12:55:13;8.40;99.90
563;DHT22;266;49.514;8.294;2024-03-23T12:57:39;8.10;99.90
563;DHT22;266;49.514;8.294;2024-03-23T13:00:08;7.90;99.90
563;DHT22;266;49.514;8.294;2024-03-23T13:02:37;7.80;99.90
563;DHT22;266;49.514;8.294;2024-03-23T13:05:06;8.30;99.90
563;DHT22;266;49.514;8.294;2024-03-23T13:07:34;9.00;99.90
563;DHT22;266;49.514;8.294;2024-03-23T13:10:01;9.80;99.90
563;DHT22;266;49.514;8.294;2024-03-23T13:12:29;10.60;99.90
563;DHT22;266;49.514;8.294;2024-03-23T13:14:56;11.10;99.90
563;DHT22;266;49.514;8.294;2024-03-23T13:17:22;11.70;99.90
563;DHT22;266;49.514;8.294;2024-03-23T13:19:50;12.30;99.90
563;DHT22;266;49.514;8.294;2024-03-23T13:22:16;12.40;99.90
563;DHT22;266;49.514;8.294;2024-03-23T13:24:43;12.80;99.90
563;DHT22;266;49.514;8.294;2024-03-23T13:27:10;12.80;99.90
563;DHT22;266;49.514;8.294;2024-03-23T13:29:39;12.60;99.90
563;DHT22;266;49.514;8.294;2024-03-23T13:32:06;13.10;99.90
563;DHT22;266;49.514;8.294;2024-03-23T13:34:33;13.50;99.90
563;DHT22;266;49.514;8.294;2024-03-23T13:37:01;13.70;99.90
563;DHT22;266;49.514;8.294;2024-03-23T13:39:30;13.40;99.90
563;DHT22;266;49.514;8.294;2024-03-23T13:41:56;13.20;99.90
563;DHT22;266;49.514;8.294;2024-03-23T13:44:23;12.40;99.90
563;DHT22;266;49.514;8.294;2024-03-23T13:46:51;12.20;99.90
563;DHT22;266;49.514;8.294;2024-03-23T13:49:25;11.90;99.90
563;DHT22;266;49.514;8.294;2024-03-23T13:51:52;11.90;99.90
563;DHT22;266;49.514;8.294;2024-03-23T13:54:20;11.40;99.90
563;DHT22;266;49.514;8.294;2024-03-23T13:56:48;11.30;99.90
563;DHT22;266;49.514;8.294;2024-03-23T13:59:15;11.10;99.90
563;DHT22;266;49.514;8.294;2024-03-23T14:01:41;10.90;99.90
563;DHT22;266;49.514;8.294;2024-03-23T14:04:10;10.60;99.90
563;DHT22;266;49.514;8.294;2024-03-23T14:06:36;10.40;99.90
563;DHT22;266;49.514;8.294;2024-03-23T14:09:03;10.30;99.90
563;DHT22;266;49.514;8.294;2024-03-23T14:11:30;10.30;99.90
563;DHT22;266;49.514;8.294;2024-03-23T15:13:57;11.10;99.90
563;DHT22;266;49.514;8.294;2024-03-23T15:16:25;10.80;99.90
563;DHT22;266;49.514;8.294;2024-03-23T15:18:52;10.60;99.90
563;DHT22;266;49.514;8.294;2024-03-23T15:21:19;10.50;99.90
563;DHT22;266;49.514;8.294;2024-03-23T15:23:47;10.30;99.90
563;DHT22;266;49.514;8.294;2024-03-23T15:26:15;10.10;99.90
563;DHT22;266;49.514;8.294;2024-03-23T15:28:42;10.00;99.90
563;DHT22;266;49.514;8.294;2024-03-23T15:31:31;9.90;99.90
563;DHT22;266;49.514;8.294;2024-03-23T15:38:09;9.60;99.90
563;DHT22;266;49.514;8.294;2024-03-23T15:40:36;8.70;99.90
563;DHT22;266;49.514;8.294;2024-03-23T15:43:03;8.20;99.90
563;DHT22;266;49.514;8.294;2024-03-23T15:45:30;8.20;99.90
563;DHT22;266;49.514;8.294;2024-03-23T15:47:56;8.50;99.90
563;DHT22;266;49.514;8.294;2024-03-23T15:50:23;8.70;99.90
563;DHT22;266;49.514;8.294;2024-03-23T15:52:50;9.00;99.90
563;DHT22;266;49.514;8.294;2024-03-23T15:55:18;9.10;99.90
563;DHT22;266;49.514;8.294;2024-03-23T15:57:44;9.10;99.90
563;DHT22;266;49.514;8.294;2024-03-23T16:00:13;8.80;99.90
563;DHT22;266;49.514;8.294;2024-03-23T16:02:39;8.70;99.90
563;DHT22;266;49.514;8.294;2024-03-23T16:05:07;8.40;99.90
563;DHT22;266;49.514;8.294;2024-03-23T16:07:37;8.40;99.90
563;DHT22;266;49.514;8.294;2024-03-23T16:10:05;8.50;99.90
563;DHT22;266;49.514;8.294;2024-03-23T16:12:36;8.30;99.90
563;DHT22;266;49.514;8.294;2024-03-23T16:15:04;8.10;99.90
563;DHT22;266;49.514;8.294;2024-03-23T16:17:31;7.90;99.90
563;DHT22;266;49.514;8.294;2024-03-23T16:20:02;7.70;99.90
563;DHT22;266;49.514;8.294;2024-03-23T16:22:28;7.80;99.90
563;DHT22;266;49.514;8.294;2024-03-23T16:24:55;7.80;99.90
563;DHT22;266;49.514;8.294;2024-03-23T16:27:22;7.70;99.90
563;DHT22;266;49.514;8.294;2024-03-23T16:29:51;7.60;99.90
563;DHT22;266;49.514;8.294;2024-03-23T16:32:17;7.70;99.90
563;DHT22;266;49.514;8.294;2024-03-23T16:34:45;7.70;99.90
563;DHT22;266;49.514;8.294;2024-03-23T16:37:11;7.70;99.90
563;DHT22;266;49.514;8.294;2024-03-23T16:39:38;7.70;99.90
563;DHT22;266;49.514;8.294;2024-03-23T16:42:04;7.70;99.90
563;DHT22;266;49.514;8.294;2024-03-23T16:44:32;7.60;99.90
563;DHT22;266;49.514;8.294;2024-03-23T16:47:15;7.60;99.90
563;DHT22;266;49.514;8.294;2024-03-23T16:49:44;7.50;99.90
563;DHT22;266;49.514;8.294;2024-03-23T16:52:15;7.50;99.90
563;DHT22;266;49.514;8.294;2024-03-23T16:54:51;7.50;99.90
563;DHT22;266;49.514;8.294;2024-03-23T16:57:17;7.50;99.90
563;DHT22;266;49.514;8.294;2024-03-23T16:59:44;7.40;99.90
563;DHT22;266;49.514;8.294;2024-03-23T17:02:12;7.30;99.90
563;DHT22;266;49.514;8.294;2024-03-23T17:04:39;7.20;99.90
563;DHT22;266;49.514;8.294;2024-03-23T17:07:05;7.20;99.90
563;DHT22;266;49.514;8.294;2024-03-23T17:09:33;7.10;99.90
563;DHT22;266;49.514;8.294;2024-03-23T17:12:12;7.00;99.90
563;DHT22;266;49.514;8.294;2024-03-23T17:14:39;7.00;99.90
563;DHT22;266;49.514;8.294;2024-03-23T17:17:06;6.90;99.90
563;DHT22;266;49.514;8.294;2024-03-23T17:19:35;6.90;99.90
563;DHT22;266;49.514;8.294;2024-03-23T17:22:02;6.90;99.90
563;DHT22;266;49.514;8.294;2024-03-23T17:24:35;6.90;99.90
563;DHT22;266;49.514;8.294;2024-03-23T17:27:05;7.00;99.90
563;DHT22;266;49.514;8.294;2024-03-23T17:29:32;7.00;99.90
563;DHT22;266;49.514;8.294;2024-03-23T17:31:59;7.00;99.90
563;DHT22;266;49.514;8.294;2024-03-23T17:34:26;7.00;99.90
563;DHT22;266;49.514;8.294;2024-03-23T17:36:55;7.00;99.90
563;DHT22;266;49.514;8.294;2024-03-23T17:39:23;6.90;99.90
563;DHT22;266;49.514;8.294;2024-03-23T17:41:49;7.00;99.90
563;DHT22;266;49.514;8.294;2024-03-23T17:44:17;6.90;99.90
563;DHT22;266;49.514;8.294;2024-03-23T17:46:43;6.80;99.90
563;DHT22;266;49.514;8.294;2024-03-23T17:49:10;7.00;99.90
563;DHT22;266;49.514;8.294;2024-03-23T17:51:36;7.00;99.90
563;DHT22;266;49.514;8.294;2024-03-23T17:54:04;6.90;99.90
563;DHT22;266;49.514;8.294;2024-03-23T17:56:31;6.80;99.90
563;DHT22;266;49.514;8.294;2024-03-23T17:58:58;6.80;99.90
563;DHT22;266;49.514;8.294;2024-03-23T18:01:24;6.70;99.90
563;DHT22;266;49.514;8.294;2024-03-23T18:03:52;6.80;99.90
563;DHT22;266;49.514;8.294;2024-03-23T18:06:18;6.80;99.90
563;DHT22;266;49.514;8.294;2024-03-23T18:08:46;6.70;99.90
563;DHT22;266;49.514;8.294;2024-03-23T18:11:14;6.60;99.90
563;DHT22;266;49.514;8.294;2024-03-23T18:13:41;6.60;99.90
563;DHT22;266;49.514;8.294;2024-03-23T18:16:09;6.60;99.90
563;DHT22;266;49.514;8.294;2024-03-23T18:18:36;6.50;99.90
563;DHT22;266;49.514;8.294;2024-03-23T18:21:03;6.40;99.90
563;DHT22;266;49.514;8.294;2024-03-23T18:23:30;6.30;99.90
563;DHT22;266;49.514;8.294;2024-03-23T18:25:56;6.30;99.90
563;DHT22;266;49.514;8.294;2024-03-23T18:28:26;6.20;99.90
563;DHT22;266;49.514;8.294;2024-03-23T18:30:59;6.20;99.90
563;DHT22;266;49.514;8.294;2024-03-23T18:33:32;6.10;99.90
563;DHT22;266;49.514;8.294;2024-03-23T18:35:58;6.10;99.90
563;DHT22;266;49.514;8.294;2024-03-23T18:38:26;6.10;99.90
563;DHT22;266;49.514;8.294;2024-03-23T18:40:52;6.00;99.90
563;DHT22;266;49.514;8.294;2024-03-23T18:43:20;6.00;99.90